Time;durP1;ratioP1;P1;durP2;ratioP2;P2;SDS_P1;SDS_P2;PMS_P1;PMS_P2;Temp;Humidity;BMP_temperature;BMP_pressure;BME280_temperature;BME280_humidity;BME280_pressure;Samples;Min_cycle;Max_cycle;Signal;HPM_P1;HPM_P2
2024/01/08 00:02:24;;;;;;;13.27;9.20;;;-2.50;93.20;;;;;;5108051;28;20206;-63
2024/01/08 00:04:53;;;;;;;12.90;7.87;;;-2.70;94.30;;;;;;5107775;28;20198;-61
2024/01/08 00:07:21;;;;;;;16.40;11.80;;;-2.80;94.50;;;;;;5108010;28;20199;-61
2024/01/08 00:09:49;;;;;;;18.13;11.30;;;-3.00;94.70;;;;;;5107869;28;20199;-60
2024/01/08 00:12:17;;;;;;;19.27;10.07;;;-2.80;95.00;;;;;;5108170;28;20234;-61
2024/01/08 00:14:46;;;;;;;16.57;9.83;;;-2.80;95.00;;;;;;5108271;28;20206;-63
2024/01/08 00:17:15;;;;;;;12.00;7.93;;;-2.80;94.70;;;;;;5089851;28;20199;-61
2024/01/08 00:19:43;;;;;;;15.00;9.80;;;-2.90;95.40;;;;;;5107541;28;20227;-60
2024/01/08 00:22:11;;;;;;;11.00;8.60;;;-2.80;94.70;;;;;;5108011;28;20202;-61
2024/01/08 00:24:40;;;;;;;14.20;9.70;;;-2.80;94.70;;;;;;5108158;28;20196;-61
2024/01/08 00:27:08;;;;;;;11.37;7.97;;;-3.00;94.00;;;;;;5107916;28;20188;-61
2024/01/08 00:29:37;;;;;;;19.50;9.53;;;-3.00;95.10;;;;;;5109737;28;20195;-62
2024/01/08 00:32:07;;;;;;;15.33;8.87;;;-3.30;96.00;;;;;;5111640;28;20302;-62
2024/01/08 00:34:36;;;;;;;13.40;9.13;;;-3.00;95.90;;;;;;5111884;28;20220;-61
2024/01/08 00:37:04;;;;;;;14.20;7.93;;;-2.80;94.40;;;;;;5111881;28;20731;-61
2024/01/08 00:39:33;;;;;;;17.33;10.13;;;-2.70;93.90;;;;;;5111680;28;20707;-61
2024/01/08 00:42:02;;;;;;;12.50;8.73;;;-2.80;94.50;;;;;;5093414;28;20195;-62
2024/01/08 00:44:30;;;;;;;15.53;8.67;;;-2.80;94.30;;;;;;5111842;28;20207;-60
2024/01/08 00:46:58;;;;;;;14.90;8.70;;;-3.00;95.00;;;;;;5111882;28;20194;-61
2024/01/08 00:49:28;;;;;;;13.27;8.27;;;-3.00;95.50;;;;;;5111458;28;20737;-61
2024/01/08 00:51:56;;;;;;;15.57;8.20;;;-2.90;95.50;;;;;;5111472;28;20191;-61
2024/01/08 00:54:24;;;;;;;12.73;8.90;;;-3.00;96.00;;;;;;5111576;28;20246;-61
2024/01/08 00:56:53;;;;;;;12.23;7.53;;;-2.80;94.90;;;;;;5111346;28;20199;-61
2024/01/08 00:59:21;;;;;;;8.97;6.80;;;-2.70;93.80;;;;;;5111417;28;20191;-61
2024/01/08 01:01:49;;;;;;;11.53;7.10;;;-3.00;95.60;;;;;;5111350;28;20222;-60
2024/01/08 01:04:18;;;;;;;12.20;7.50;;;-2.90;95.50;;;;;;5111259;28;20187;-61
2024/01/08 01:06:47;;;;;;;11.93;6.87;;;-2.80;94.70;;;;;;5111401;28;20746;-61
2024/01/08 01:09:16;;;;;;;14.13;7.70;;;-2.80;95.60;;;;;;5111314;28;20199;-61
2024/01/08 01:11:45;;;;;;;7.90;6.07;;;-2.70;95.00;;;;;;5111331;28;20199;-61
2024/01/08 01:14:13;;;;;;;7.67;5.60;;;-2.90;95.40;;;;;;5111199;28;20700;-60
2024/01/08 01:16:41;;;;;;;8.30;6.73;;;-2.80;94.60;;;;;;5110958;28;20190;-60
2024/01/08 01:19:10;;;;;;;10.80;7.60;;;-3.00;96.10;;;;;;5111126;28;20207;-60
2024/01/08 01:21:38;;;;;;;10.37;6.87;;;-2.80;95.50;;;;;;5111030;28;20198;-61
2024/01/08 01:24:08;;;;;;;8.83;6.57;;;-2.80;95.80;;;;;;5111259;28;20187;-61
2024/01/08 01:26:36;;;;;;;6.80;5.40;;;-2.70;94.50;;;;;;5111033;28;20202;-60
2024/01/08 01:29:05;;;;;;;6.70;5.50;;;-3.00;94.10;;;;;;5111056;28;20206;-59
2024/01/08 01:31:33;;;;;;;7.93;5.37;;;-3.20;95.10;;;;;;5111136;28;20291;-61
2024/01/08 01:34:01;;;;;;;8.07;6.30;;;-3.30;97.80;;;;;;5110706;28;20234;-60
2024/01/08 01:36:35;;;;;;;6.17;5.43;;;-3.10;97.70;;;;;;5111005;28;20245;-60
2024/01/08 01:39:03;;;;;;;7.73;6.60;;;-3.20;98.50;;;;;;5110936;28;20198;-60
2024/01/08 01:41:33;;;;;;;9.53;6.23;;;-3.00;99.60;;;;;;5110387;28;20206;-60
2024/01/08 01:44:02;;;;;;;8.70;5.70;;;-2.90;97.80;;;;;;5110875;28;20191;-59
2024/01/08 01:46:44;;;;;;;7.17;5.50;;;-3.00;97.10;;;;;;5092475;28;20283;-60
2024/01/08 01:49:13;;;;;;;7.33;6.17;;;-3.20;99.80;;;;;;5110544;28;20187;-60
2024/01/08 01:51:43;;;;;;;7.07;5.40;;;-3.20;99.90;;;;;;5110484;28;20678;-60
2024/01/08 01:54:13;;;;;;;9.43;6.73;;;-3.20;99.90;;;;;;5110546;28;20215;-60
2024/01/08 01:56:46;;;;;;;9.97;7.10;;;-3.30;99.90;;;;;;5110342;28;20204;-59
2024/01/08 01:59:17;;;;;;;8.53;6.23;;;-3.00;99.90;;;;;;5110719;28;20688;-60
2024/01/08 02:01:46;;;;;;;11.00;6.93;;;-3.20;99.90;;;;;;5110639;28;20245;-60
2024/01/08 02:04:15;;;;;;;9.57;6.77;;;-3.10;99.80;;;;;;5110387;28;20192;-59
2024/01/08 02:06:45;;;;;;;8.07;6.40;;;-3.30;99.30;;;;;;5110583;28;20282;-60
2024/01/08 02:09:15;;;;;;;11.37;6.93;;;-3.20;99.70;;;;;;5110360;28;20552;-60
2024/01/08 02:11:45;;;;;;;8.53;6.53;;;-3.20;98.60;;;;;;5110119;28;20199;-60
2024/01/08 02:14:13;;;;;;;8.07;6.63;;;-3.20;99.50;;;;;;5110301;28;20227;-60
2024/01/08 02:16:42;;;;;;;7.80;5.83;;;-3.30;99.60;;;;;;5110052;28;20192;-62
2024/01/08 02:19:11;;;;;;;7.70;6.10;;;-3.30;99.90;;;;;;5109779;28;20202;-61
2024/01/08 02:21:40;;;;;;;11.20;6.60;;;-3.30;99.40;;;;;;5109599;28;20608;-61
2024/01/08 02:24:10;;;;;;;8.47;6.23;;;-3.30;99.20;;;;;;5110065;28;20923;-62
2024/01/08 02:26:38;;;;;;;7.03;5.90;;;-3.30;98.50;;;;;;5109933;28;20188;-61
2024/01/08 02:29:06;;;;;;;10.70;6.07;;;-3.30;98.30;;;;;;5109828;28;20203;-61
2024/01/08 02:31:35;;;;;;;8.80;6.17;;;-3.50;99.50;;;;;;5109975;28;20218;-61
2024/01/08 02:34:04;;;;;;;8.80;6.60;;;-3.60;98.50;;;;;;5109647;28;20627;-61
2024/01/08 02:36:32;;;;;;;9.43;6.23;;;-3.50;98.70;;;;;;5109803;28;20180;-61
2024/01/08 02:39:00;;;;;;;10.20;6.90;;;-3.40;97.40;;;;;;5109517;28;20606;-60
2024/01/08 02:41:30;;;;;;;9.13;6.50;;;-3.40;96.00;;;;;;5109842;28;20303;-61
2024/01/08 02:43:58;;;;;;;10.33;6.53;;;-3.50;96.80;;;;;;5109664;28;20192;-60
2024/01/08 02:46:27;;;;;;;9.47;6.43;;;-3.40;95.90;;;;;;5109568;28;20204;-61
2024/01/08 02:48:56;;;;;;;10.43;6.27;;;-3.30;95.40;;;;;;5109532;28;20194;-61
2024/01/08 02:51:24;;;;;;;10.07;6.03;;;-3.30;94.10;;;;;;5109491;28;20188;-62
2024/01/08 02:53:52;;;;;;;9.50;6.30;;;-3.40;93.40;;;;;;5109533;28;20231;-60
2024/01/08 02:56:21;;;;;;;8.50;6.33;;;-3.40;92.70;;;;;;5109326;28;20202;-61
2024/01/08 02:58:51;;;;;;;8.20;6.37;;;-3.30;92.50;;;;;;5109443;28;20287;-60
2024/01/08 03:01:19;;;;;;;8.13;6.10;;;-3.30;91.80;;;;;;5109231;28;20653;-60
2024/01/08 03:03:48;;;;;;;10.87;7.20;;;-3.50;91.30;;;;;;5109113;28;20191;-60
2024/01/08 03:06:16;;;;;;;8.77;6.83;;;-3.50;91.50;;;;;;5109414;28;20669;-60
2024/01/08 03:08:44;;;;;;;8.00;5.73;;;-3.40;90.70;;;;;;5109372;28;20286;-61
2024/01/08 03:11:13;;;;;;;18.23;10.73;;;-3.50;88.30;;;;;;5109154;28;20196;-60
2024/01/08 03:13:41;;;;;;;9.80;7.30;;;-3.50;86.70;;;;;;5109117;28;20235;-60
2024/01/08 03:16:11;;;;;;;10.23;6.93;;;-3.50;86.90;;;;;;5109187;28;20276;-60
2024/01/08 03:18:39;;;;;;;7.90;5.80;;;-3.50;84.50;;;;;;5108976;28;20203;-60
2024/01/08 03:21:08;;;;;;;6.13;5.53;;;-3.70;82.60;;;;;;5108899;28;20536;-59
2024/01/08 03:23:36;;;;;;;8.23;5.10;;;-3.80;80.50;;;;;;5109051;28;20744;-59
2024/01/08 03:26:06;;;;;;;10.70;5.57;;;-3.70;80.50;;;;;;5109029;28;20196;-59
2024/01/08 03:28:34;;;;;;;7.37;5.73;;;-3.60;78.70;;;;;;5109114;28;20209;-59
2024/01/08 03:31:02;;;;;;;6.10;5.07;;;-3.70;77.60;;;;;;5108704;28;20229;-60
2024/01/08 03:33:32;;;;;;;7.90;5.47;;;-3.60;76.30;;;;;;5108920;28;20215;-60
2024/01/08 03:36:01;;;;;;;8.07;5.33;;;-3.60;75.00;;;;;;5108830;28;20333;-59
2024/01/08 03:38:29;;;;;;;6.27;4.90;;;-3.70;73.80;;;;;;5108953;28;20265;-60
2024/01/08 03:40:57;;;;;;;6.77;5.60;;;-3.70;73.20;;;;;;5108625;28;20227;-60
2024/01/08 03:43:26;;;;;;;6.00;4.60;;;-3.70;72.80;;;;;;5108711;28;20209;-59
2024/01/08 03:45:54;;;;;;;7.93;5.20;;;-3.70;72.20;;;;;;5108871;28;20233;-60
2024/01/08 03:48:22;;;;;;;7.77;4.90;;;-3.70;72.50;;;;;;5108753;28;20650;-60
2024/01/08 03:50:52;;;;;;;8.83;4.97;;;-3.70;71.70;;;;;;5108574;28;20219;-59
2024/01/08 03:53:20;;;;;;;6.13;5.13;;;-3.60;71.50;;;;;;5108731;28;20586;-59
2024/01/08 03:55:48;;;;;;;7.30;5.07;;;-3.80;71.10;;;;;;5108927;28;20290;-60
2024/01/08 03:58:17;;;;;;;5.53;4.53;;;-3.80;71.80;;;;;;5109064;28;20196;-60
2024/01/08 04:00:45;;;;;;;5.27;4.60;;;-3.80;71.00;;;;;;5108994;28;20187;-60
2024/01/08 04:03:14;;;;;;;8.70;5.43;;;-3.80;70.80;;;;;;5108967;28;20199;-59
2024/01/08 04:05:42;;;;;;;6.77;4.87;;;-4.10;70.50;;;;;;5112329;28;20562;-60
2024/01/08 04:08:12;;;;;;;6.60;5.23;;;-4.20;71.30;;;;;;5112894;28;20196;-60
2024/01/08 04:10:40;;;;;;;7.40;5.33;;;-4.10;71.60;;;;;;5112927;28;20194;-60
2024/01/08 04:13:09;;;;;;;5.43;4.83;;;-4.20;72.50;;;;;;5112769;28;20687;-60
2024/01/08 04:15:37;;;;;;;6.87;4.90;;;-4.00;72.80;;;;;;5112729;28;20231;-60
2024/01/08 04:18:05;;;;;;;7.30;4.80;;;-3.90;72.20;;;;;;5112901;28;20200;-60
2024/01/08 04:20:34;;;;;;;4.93;4.50;;;-3.90;71.70;;;;;;5112430;28;20661;-60
2024/01/08 04:23:02;;;;;;;6.23;4.57;;;-3.90;71.90;;;;;;5112870;28;20200;-60
2024/01/08 04:25:32;;;;;;;8.20;4.57;;;-3.90;72.10;;;;;;5112550;28;20203;-60
2024/01/08 04:28:00;;;;;;;6.00;4.30;;;-3.80;72.60;;;;;;5112434;28;20209;-60
2024/01/08 04:30:28;;;;;;;6.73;4.50;;;-3.80;72.80;;;;;;5112457;28;20188;-60
2024/01/08 04:32:57;;;;;;;10.10;5.40;;;-3.70;72.80;;;;;;5112204;28;20334;-61
2024/01/08 04:35:25;;;;;;;9.90;5.30;;;-3.70;73.00;;;;;;5112353;28;20219;-60
2024/01/08 04:37:53;;;;;;;11.07;6.07;;;-3.70;73.00;;;;;;5112351;28;20672;-60
2024/01/08 04:40:22;;;;;;;6.20;4.13;;;-3.80;73.40;;;;;;5112121;28;20567;-60
2024/01/08 04:42:51;;;;;;;7.10;5.10;;;-3.70;73.50;;;;;;5112312;28;20203;-60
2024/01/08 04:45:20;;;;;;;9.13;5.80;;;-3.80;73.50;;;;;;5112018;28;20191;-60
2024/01/08 04:47:48;;;;;;;8.50;5.50;;;-4.00;74.80;;;;;;5111943;28;20207;-59
2024/01/08 04:50:16;;;;;;;8.87;5.63;;;-3.90;75.80;;;;;;5111623;28;20203;-60
2024/01/08 04:52:45;;;;;;;7.90;5.27;;;-3.80;75.50;;;;;;5112000;28;20192;-60
2024/01/08 04:55:13;;;;;;;5.93;4.93;;;-3.70;74.60;;;;;;5111621;28;20593;-60
2024/01/08 04:57:42;;;;;;;6.80;5.07;;;-4.20;75.30;;;;;;5111791;28;20196;-60
2024/01/08 05:00:12;;;;;;;5.50;4.20;;;-4.00;76.90;;;;;;5111613;28;20200;-60
2024/01/08 05:02:41;;;;;;;5.43;4.47;;;-3.90;76.60;;;;;;5111440;28;20200;-60
2024/01/08 05:05:11;;;;;;;8.73;4.63;;;-3.80;76.20;;;;;;5111243;28;20248;-60
2024/01/08 05:07:39;;;;;;;5.57;4.23;;;-3.80;75.80;;;;;;5111448;28;20272;-60
2024/01/08 05:10:08;;;;;;;8.00;5.00;;;-3.80;75.60;;;;;;5111282;28;20226;-59
2024/01/08 05:12:37;;;;;;;5.77;5.20;;;-3.90;76.50;;;;;;5111266;28;20188;-61
2024/01/08 05:15:06;;;;;;;6.67;4.77;;;-4.00;76.60;;;;;;5110590;28;20208;-60
2024/01/08 05:17:35;;;;;;;6.40;5.17;;;-3.90;76.40;;;;;;5110629;28;20545;-60
2024/01/08 05:20:05;;;;;;;9.23;6.13;;;-3.80;76.70;;;;;;5110704;28;20723;-60
2024/01/08 05:22:33;;;;;;;12.83;7.50;;;-4.00;75.60;;;;;;5110829;28;20186;-59
2024/01/08 05:25:01;;;;;;;13.67;6.60;;;-4.30;77.40;;;;;;5110953;28;20197;-60
2024/01/08 05:27:30;;;;;;;14.27;7.43;;;-4.10;79.00;;;;;;5110903;28;20194;-59
2024/01/08 05:29:58;;;;;;;10.27;6.70;;;-4.20;78.90;;;;;;5110813;28;20206;-60
2024/01/08 05:32:26;;;;;;;15.07;7.77;;;-4.00;78.60;;;;;;5110823;28;20210;-60
2024/01/08 05:34:56;;;;;;;13.23;8.10;;;-4.00;78.60;;;;;;5110496;28;20310;-60
2024/01/08 05:37:24;;;;;;;8.97;7.13;;;-3.80;77.60;;;;;;5110691;28;20192;-60
2024/01/08 05:39:52;;;;;;;15.80;9.30;;;-4.00;78.80;;;;;;5110539;28;20708;-60
2024/01/08 05:42:21;;;;;;;15.50;9.70;;;-4.00;79.10;;;;;;5110646;28;20691;-60
2024/01/08 05:44:49;;;;;;;21.00;11.53;;;-4.20;79.60;;;;;;5110844;28;20225;-60
2024/01/08 05:47:18;;;;;;;21.20;12.17;;;-4.30;81.50;;;;;;5107862;27;20192;-60
2024/01/08 05:49:46;;;;;;;22.57;12.63;;;-4.30;83.40;;;;;;5089688;28;20192;-61
2024/01/08 05:52:15;;;;;;;24.27;13.20;;;-4.30;82.30;;;;;;5096258;28;20208;-59
2024/01/08 05:54:44;;;;;;;24.13;13.03;;;-4.30;83.40;;;;;;5110307;28;20196;-61
2024/01/08 05:57:12;;;;;;;24.37;13.13;;;-4.20;83.90;;;;;;5110043;28;20191;-64
2024/01/08 05:59:41;;;;;;;20.03;11.03;;;-4.10;83.70;;;;;;5110163;28;20210;-61
2024/01/08 06:02:10;;;;;;;31.03;16.00;;;-4.00;83.70;;;;;;5120387;27;20580;-60
2024/01/08 06:04:38;;;;;;;19.00;11.77;;;-3.90;82.60;;;;;;5130716;27;20294;-60
2024/01/08 06:07:06;;;;;;;26.67;14.93;;;-3.90;82.00;;;;;;5109845;28;20191;-60
2024/01/08 06:09:36;;;;;;;18.33;9.90;;;-3.90;82.20;;;;;;5109837;28;20188;-61
2024/01/08 06:12:05;;;;;;;21.83;10.63;;;-3.90;83.10;;;;;;5110042;28;20192;-59
2024/01/08 06:14:34;;;;;;;14.50;8.70;;;-3.90;83.90;;;;;;5110050;28;20645;-60
2024/01/08 06:17:03;;;;;;;15.43;9.07;;;-4.00;84.60;;;;;;5109822;28;20215;-60
2024/01/08 06:19:31;;;;;;;13.20;7.57;;;-3.90;84.80;;;;;;5130276;27;20656;-60
2024/01/08 06:21:59;;;;;;;22.20;13.27;;;-3.80;84.80;;;;;;5130118;27;20191;-60
2024/01/08 06:24:28;;;;;;;13.87;8.00;;;-3.90;86.10;;;;;;5130478;27;20191;-60
2024/01/08 06:26:57;;;;;;;15.70;9.10;;;-4.00;86.80;;;;;;5129976;27;20198;-61
2024/01/08 06:29:26;;;;;;;15.13;8.10;;;-3.90;88.90;;;;;;5130207;27;20199;-60
2024/01/08 06:31:54;;;;;;;14.40;9.50;;;-3.80;88.90;;;;;;5130408;27;20199;-60
2024/01/08 06:34:22;;;;;;;14.27;8.03;;;-3.70;87.60;;;;;;5130263;27;20198;-60
2024/01/08 06:36:51;;;;;;;13.53;7.70;;;-3.70;87.40;;;;;;5130138;27;20749;-60
2024/01/08 06:39:19;;;;;;;12.77;7.53;;;-3.80;88.20;;;;;;5130211;27;20276;-60
2024/01/08 06:41:47;;;;;;;17.00;9.70;;;-3.90;89.10;;;;;;5130106;27;20199;-60
2024/01/08 06:44:17;;;;;;;18.93;10.80;;;-3.90;89.20;;;;;;5130169;27;20194;-60
2024/01/08 06:46:46;;;;;;;20.00;10.27;;;-3.90;88.50;;;;;;5130298;27;20272;-60
2024/01/08 06:49:14;;;;;;;18.40;8.83;;;-3.90;88.10;;;;;;5130002;27;20746;-62
2024/01/08 06:51:42;;;;;;;14.07;9.23;;;-3.90;87.90;;;;;;5129659;27;20278;-61
2024/01/08 06:54:11;;;;;;;14.13;9.77;;;-3.80;87.40;;;;;;5130016;27;20201;-61
2024/01/08 06:56:39;;;;;;;12.50;8.60;;;-3.80;86.80;;;;;;5129918;27;20236;-61
2024/01/08 06:59:07;;;;;;;16.10;8.17;;;-3.80;86.50;;;;;;5129888;27;20660;-61
2024/01/08 07:01:37;;;;;;;14.27;8.17;;;-3.70;86.30;;;;;;5129957;27;20212;-61
2024/01/08 07:04:05;;;;;;;15.50;9.40;;;-3.70;85.60;;;;;;5129872;27;20187;-61
2024/01/08 07:06:34;;;;;;;14.23;8.70;;;-3.70;84.80;;;;;;5129570;27;20199;-61
2024/01/08 07:09:04;;;;;;;16.17;10.40;;;-3.70;85.30;;;;;;5130035;27;20213;-61
2024/01/08 07:11:32;;;;;;;15.47;9.97;;;-3.70;85.80;;;;;;5129615;27;20207;-61
2024/01/08 07:14:00;;;;;;;21.17;12.37;;;-3.70;85.60;;;;;;5129996;27;20610;-62
2024/01/08 07:16:29;;;;;;;22.47;11.13;;;-3.70;86.10;;;;;;5129736;27;20226;-62
2024/01/08 07:18:58;;;;;;;18.97;11.87;;;-4.00;87.50;;;;;;5129726;27;20613;-62
2024/01/08 07:21:27;;;;;;;29.13;17.23;;;-3.70;87.70;;;;;;5129252;27;20203;-61
2024/01/08 07:23:56;;;;;;;25.10;15.70;;;-3.70;86.40;;;;;;5129619;27;20187;-61
2024/01/08 07:26:24;;;;;;;26.53;15.80;;;-3.70;90.60;;;;;;5129237;28;20210;-60
2024/01/08 07:28:53;;;;;;;24.23;15.33;;;-3.70;92.20;;;;;;5129506;28;20281;-62
2024/01/08 07:31:21;;;;;;;24.13;14.60;;;-3.50;91.40;;;;;;5129650;28;20681;-61
2024/01/08 07:33:49;;;;;;;34.03;17.27;;;-3.60;92.20;;;;;;5128359;28;20214;-60
2024/01/08 07:36:20;;;;;;;34.07;18.57;;;-3.50;91.10;;;;;;5097520;28;20705;-61
2024/01/08 07:38:49;;;;;;;45.07;23.57;;;-3.40;91.20;;;;;;5127884;27;20202;-59
2024/01/08 07:41:17;;;;;;;38.60;22.23;;;-3.40;89.40;;;;;;5112893;28;20199;-59
2024/01/08 07:43:46;;;;;;;25.10;16.23;;;-3.50;90.90;;;;;;5113547;28;20242;-59
2024/01/08 07:46:14;;;;;;;28.20;16.43;;;-3.50;91.10;;;;;;5113519;28;20192;-60
2024/01/08 07:48:42;;;;;;;25.87;16.57;;;-3.30;90.80;;;;;;5113173;28;20198;-59
2024/01/08 07:51:10;;;;;;;28.83;15.90;;;-3.30;90.40;;;;;;5113307;28;20195;-59
2024/01/08 07:53:40;;;;;;;24.40;14.20;;;-3.30;90.60;;;;;;5094433;28;20203;-59
2024/01/08 07:56:09;;;;;;;29.40;16.20;;;-3.20;90.10;;;;;;5113377;28;20207;-59
2024/01/08 07:58:37;;;;;;;24.77;14.30;;;-3.30;90.90;;;;;;5113472;28;20195;-59
2024/01/08 08:01:07;;;;;;;29.97;15.40;;;-3.30;90.60;;;;;;5113439;28;20188;-59
2024/01/08 08:03:36;;;;;;;29.07;19.47;;;-3.20;91.00;;;;;;5112819;28;20210;-58
2024/01/08 08:06:05;;;;;;;21.33;15.40;;;-3.00;92.50;;;;;;5113256;28;20835;-59
2024/01/08 08:08:34;;;;;;;22.57;13.30;;;-3.00;91.40;;;;;;5113203;28;20282;-59
2024/01/08 08:11:06;;;;;;;29.23;15.60;;;-2.90;90.10;;;;;;5113000;28;20201;-59
2024/01/08 08:13:35;;;;;;;29.17;14.87;;;-3.00;89.60;;;;;;5112944;28;20202;-59
2024/01/08 08:16:03;;;;;;;31.27;18.17;;;-2.70;85.80;;;;;;5113051;28;20199;-59
2024/01/08 08:18:32;;;;;;;106.83;41.57;;;-2.70;85.60;;;;;;5112530;28;20199;-59
2024/01/08 08:21:04;;;;;;;97.73;40.37;;;-2.60;85.10;;;;;;5112357;28;20195;-58
2024/01/08 08:23:33;;;;;;;61.87;29.77;;;-2.70;86.20;;;;;;5112804;28;20207;-58
2024/01/08 08:26:02;;;;;;;78.80;38.63;;;-2.90;86.90;;;;;;5112728;28;20295;-60
2024/01/08 08:28:32;;;;;;;64.70;30.33;;;-2.80;88.80;;;;;;5112619;28;20219;-60
2024/01/08 08:31:01;;;;;;;36.20;19.83;;;-2.70;89.10;;;;;;5112626;28;20215;-60
2024/01/08 08:33:29;;;;;;;33.80;18.53;;;-2.70;87.50;;;;;;5111953;28;20217;-61
2024/01/08 08:35:58;;;;;;;36.83;21.67;;;-2.70;89.00;;;;;;5109445;28;20210;-60
2024/01/08 08:38:26;;;;;;;78.73;38.13;;;-2.70;86.30;;;;;;5109058;28;20198;-60
2024/01/08 08:40:55;;;;;;;57.80;30.50;;;-2.60;88.30;;;;;;5112184;28;20591;-59
2024/01/08 08:43:23;;;;;;;55.87;34.53;;;-2.50;90.10;;;;;;5112626;28;20285;-60
2024/01/08 08:45:53;;;;;;;40.90;23.33;;;-2.40;91.30;;;;;;5112414;28;20281;-59
2024/01/08 08:48:22;;;;;;;73.90;39.73;;;-2.30;93.60;;;;;;5111873;28;20231;-60
2024/01/08 08:50:50;;;;;;;47.57;27.30;;;-2.20;91.70;;;;;;5112099;28;20224;-60
2024/01/08 08:53:19;;;;;;;64.57;36.57;;;-2.30;91.10;;;;;;5112502;28;20196;-59
2024/01/08 08:55:47;;;;;;;67.77;36.17;;;-2.30;90.00;;;;;;5112252;28;20188;-60
2024/01/08 08:58:16;;;;;;;46.10;27.07;;;-2.30;90.90;;;;;;5112061;28;20233;-60
2024/01/08 09:00:44;;;;;;;40.63;24.03;;;-2.30;93.10;;;;;;5111720;28;20230;-59
2024/01/08 09:03:14;;;;;;;44.93;25.03;;;-2.20;93.70;;;;;;5112047;28;20298;-59
2024/01/08 09:05:43;;;;;;;42.93;23.37;;;-2.20;91.50;;;;;;5111888;28;20191;-59
2024/01/08 09:08:14;;;;;;;37.93;21.13;;;-2.10;90.50;;;;;;5111770;28;20252;-60
2024/01/08 09:10:42;;;;;;;44.80;22.53;;;-2.00;92.40;;;;;;5111934;28;20617;-59
2024/01/08 09:13:12;;;;;;;33.97;23.27;;;-2.00;89.00;;;;;;5112043;28;20199;-59
2024/01/08 09:15:40;;;;;;;35.47;19.77;;;-2.10;88.90;;;;;;5111544;28;20525;-59
2024/01/08 09:18:08;;;;;;;33.40;18.77;;;-2.20;89.20;;;;;;5111766;28;20211;-59
2024/01/08 09:20:38;;;;;;;36.50;21.07;;;-2.30;91.70;;;;;;5111663;28;20191;-60
2024/01/08 09:23:07;;;;;;;41.30;21.30;;;-2.00;96.80;;;;;;5111684;28;20565;-60
2024/01/08 09:25:35;;;;;;;35.00;18.70;;;-1.90;96.40;;;;;;5111690;28;20198;-60
2024/01/08 09:28:04;;;;;;;32.70;17.33;;;-1.90;97.40;;;;;;5111267;28;20191;-61
2024/01/08 09:30:32;;;;;;;36.07;18.97;;;-1.90;91.70;;;;;;5111168;28;20238;-60
2024/01/08 09:33:01;;;;;;;37.20;21.03;;;-2.10;90.10;;;;;;5111540;28;20210;-60
2024/01/08 09:35:29;;;;;;;43.10;23.73;;;-2.10;88.70;;;;;;5111164;28;20192;-60
2024/01/08 09:37:59;;;;;;;36.77;21.03;;;-2.30;91.10;;;;;;5110860;28;20234;-60
2024/01/08 09:40:28;;;;;;;30.80;17.17;;;-2.10;90.60;;;;;;5111149;28;20310;-61
2024/01/08 09:42:58;;;;;;;35.93;20.43;;;-2.00;90.40;;;;;;5110954;28;20665;-61
2024/01/08 09:45:29;;;;;;;33.13;17.77;;;-2.20;89.50;;;;;;5110471;28;20207;-60
2024/01/08 09:47:58;;;;;;;25.73;13.77;;;-2.30;92.00;;;;;;5111085;28;20199;-61
2024/01/08 09:50:27;;;;;;;28.60;14.67;;;-2.20;91.40;;;;;;5110907;28;20293;-61
2024/01/08 09:52:56;;;;;;;18.30;11.57;;;-2.30;92.40;;;;;;5111165;28;20912;-61
2024/01/08 09:55:27;;;;;;;25.97;16.50;;;-2.20;91.90;;;;;;5111045;28;20188;-61
2024/01/08 09:57:56;;;;;;;24.27;11.87;;;-2.00;93.10;;;;;;5110616;28;20709;-61
2024/01/08 10:00:24;;;;;;;34.63;21.03;;;-1.90;91.60;;;;;;5110583;28;20605;-63
2024/01/08 10:02:56;;;;;;;26.33;17.33;;;-2.00;92.00;;;;;;5110304;28;20199;-63
2024/01/08 10:05:28;;;;;;;29.10;16.13;;;-2.30;92.60;;;;;;5110550;28;20277;-63
2024/01/08 10:08:00;;;;;;;34.30;18.37;;;-2.20;94.20;;;;;;5110522;28;20215;-63
2024/01/08 10:10:30;;;;;;;20.93;14.33;;;-2.40;95.10;;;;;;5110868;28;20741;-60
2024/01/08 10:12:59;;;;;;;22.97;15.00;;;-2.10;95.10;;;;;;5111035;28;20223;-61
2024/01/08 10:15:28;;;;;;;20.23;12.70;;;-2.10;92.90;;;;;;5110418;28;20896;-62
2024/01/08 10:18:01;;;;;;;18.73;11.20;;;-2.30;92.80;;;;;;5110453;28;20222;-62
2024/01/08 10:20:30;;;;;;;18.47;10.83;;;-2.40;93.30;;;;;;5110498;28;20562;-61
2024/01/08 10:23:06;;;;;;;16.13;9.43;;;-2.30;93.90;;;;;;5110285;28;20251;-61
2024/01/08 10:25:37;;;;;;;15.33;9.53;;;-2.20;93.50;;;;;;5110389;28;20202;-60
2024/01/08 10:28:09;;;;;;;16.20;10.93;;;-2.10;92.70;;;;;;5109557;28;20196;-61
2024/01/08 10:30:38;;;;;;;15.60;11.73;;;-2.10;92.60;;;;;;5110089;28;20199;-61
2024/01/08 10:33:08;;;;;;;22.50;14.33;;;-2.00;92.60;;;;;;5110129;28;20195;-62
2024/01/08 10:35:38;;;;;;;17.23;10.23;;;-1.90;92.20;;;;;;5098994;28;20220;-60
2024/01/08 10:38:08;;;;;;;21.30;10.53;;;-2.20;92.40;;;;;;5109534;28;20711;-61
2024/01/08 10:40:38;;;;;;;19.50;11.57;;;-2.20;93.40;;;;;;5109404;28;20288;-60
2024/01/08 10:43:07;;;;;;;27.23;18.83;;;-2.10;93.70;;;;;;5109422;28;20199;-61
2024/01/08 10:45:35;;;;;;;18.87;10.67;;;-1.80;92.10;;;;;;5109441;28;20253;-60
2024/01/08 10:48:11;;;;;;;18.33;10.83;;;-1.90;91.50;;;;;;5109462;28;20199;-61
2024/01/08 10:50:40;;;;;;;13.43;8.37;;;-1.80;91.30;;;;;;5109379;28;20294;-60
2024/01/08 10:53:15;;;;;;;17.97;8.67;;;-1.80;90.50;;;;;;5109055;28;20188;-60
2024/01/08 10:55:45;;;;;;;15.43;8.33;;;-2.10;90.40;;;;;;5110416;28;20183;-60
2024/01/08 10:58:24;;;;;;;20.27;11.50;;;-2.00;92.50;;;;;;5109816;28;20207;-61
2024/01/08 11:00:53;;;;;;;16.53;9.03;;;-1.80;91.40;;;;;;5110348;28;20203;-61
2024/01/08 11:03:21;;;;;;;43.07;17.77;;;-1.70;90.00;;;;;;5109595;28;20294;-61
2024/01/08 11:05:51;;;;;;;21.30;13.43;;;-1.70;89.40;;;;;;5109589;28;20199;-60
2024/01/08 11:08:22;;;;;;;23.27;11.53;;;-1.50;89.40;;;;;;5108964;28;20279;-62
2024/01/08 11:10:52;;;;;;;23.43;12.40;;;-1.60;87.40;;;;;;5109220;28;20210;-61
2024/01/08 11:13:23;;;;;;;52.70;27.43;;;-1.60;87.90;;;;;;5108603;28;20195;-61
2024/01/08 11:15:51;;;;;;;20.03;12.50;;;-1.50;87.00;;;;;;5109040;28;20202;-61
2024/01/08 11:18:26;;;;;;;19.73;12.83;;;-1.70;86.10;;;;;;5108870;28;20222;-60
2024/01/08 11:20:59;;;;;;;26.67;15.80;;;-2.20;89.40;;;;;;5108814;28;20209;-62
2024/01/08 11:23:37;;;;;;;27.27;14.63;;;-1.90;90.20;;;;;;5108616;28;20195;-61
2024/01/08 11:26:10;;;;;;;26.10;13.43;;;-1.90;89.70;;;;;;5108907;28;20199;-63
2024/01/08 11:28:40;;;;;;;18.67;11.27;;;-1.80;87.10;;;;;;5108933;28;20649;-61
2024/01/08 11:31:46;;;;;;;18.80;11.03;;;-1.70;86.20;;;;;;5108749;28;20573;-63
2024/01/08 11:34:53;;;;;;;25.13;15.37;;;-1.80;87.10;;;;;;5108945;28;20192;-63
2024/01/08 11:37:34;;;;;;;38.60;19.57;;;-1.80;85.60;;;;;;5109008;28;20249;-63
2024/01/08 11:40:05;;;;;;;31.73;15.97;;;-1.90;88.70;;;;;;5108628;28;20231;-61
2024/01/08 11:42:40;;;;;;;22.23;11.53;;;-1.90;86.90;;;;;;5108967;28;20274;-63
2024/01/08 11:45:09;;;;;;;19.83;10.87;;;-2.00;88.30;;;;;;5109014;28;20195;-63
2024/01/08 11:47:40;;;;;;;24.60;14.20;;;-2.20;90.30;;;;;;5108889;28;20274;-63
2024/01/08 11:50:09;;;;;;;26.47;12.87;;;-2.00;90.30;;;;;;5108765;28;20196;-63
2024/01/08 11:52:39;;;;;;;23.00;11.57;;;-2.10;90.10;;;;;;5108939;28;20240;-62
2024/01/08 11:55:09;;;;;;;22.93;12.93;;;-2.10;91.50;;;;;;5108771;28;20210;-64
2024/01/08 11:57:39;;;;;;;14.77;9.73;;;-1.80;90.00;;;;;;5108729;28;20192;-63
2024/01/08 12:00:19;;;;;;;16.40;10.17;;;-1.80;86.20;;;;;;5108724;28;20314;-62
2024/01/08 12:02:48;;;;;;;15.33;8.57;;;-1.80;87.00;;;;;;5108924;28;20191;-65
2024/01/08 12:05:16;;;;;;;16.03;10.13;;;-1.90;87.00;;;;;;5108914;28;20614;-63
2024/01/08 12:07:45;;;;;;;23.90;14.57;;;-1.80;86.80;;;;;;5108896;28;20195;-63
2024/01/08 12:10:13;;;;;;;20.33;13.30;;;-1.80;87.30;;;;;;5108555;28;20277;-62
2024/01/08 12:12:44;;;;;;;21.17;11.97;;;-1.90;87.90;;;;;;5108566;28;20715;-64
2024/01/08 12:15:12;;;;;;;22.07;13.07;;;-1.70;85.50;;;;;;5108901;28;20187;-63
2024/01/08 12:17:41;;;;;;;38.47;20.50;;;-1.60;84.30;;;;;;5108881;28;20731;-61
2024/01/08 12:20:11;;;;;;;23.43;14.07;;;-1.60;83.00;;;;;;5108532;28;20349;-63
2024/01/08 12:22:39;;;;;;;25.50;15.60;;;-1.80;85.40;;;;;;5108712;28;20199;-62
2024/01/08 12:25:11;;;;;;;17.50;10.27;;;-1.60;84.90;;;;;;5091082;28;20640;-63
2024/01/08 12:27:40;;;;;;;37.87;19.53;;;-1.50;83.20;;;;;;5093581;28;20211;-63
2024/01/08 12:30:12;;;;;;;66.53;32.60;;;-1.50;82.30;;;;;;5093933;28;20289;-61
2024/01/08 12:32:41;;;;;;;27.70;16.30;;;-1.40;81.50;;;;;;5112273;28;20188;-63
2024/01/08 12:35:11;;;;;;;31.70;18.40;;;-1.50;80.80;;;;;;5112025;28;20227;-63
2024/01/08 12:37:42;;;;;;;40.23;20.33;;;-1.60;83.20;;;;;;5111984;28;20195;-63
2024/01/08 12:40:13;;;;;;;37.90;20.27;;;-1.70;84.90;;;;;;5111582;28;20239;-63
2024/01/08 12:42:42;;;;;;;21.27;13.17;;;-1.80;86.00;;;;;;5112077;28;20924;-62
2024/01/08 12:45:12;;;;;;;15.73;10.10;;;-1.60;85.50;;;;;;5112017;28;20198;-63
2024/01/08 12:47:40;;;;;;;28.17;16.03;;;-1.60;84.30;;;;;;5111667;28;20202;-63